createdAt,value
2022-12-13T00:02:01.985Z,40.83
2022-12-13T00:04:30.376Z,40.30
2022-12-13T00:06:58.659Z,40.23
2022-12-13T00:09:27.152Z,37.87
2022-12-13T00:11:55.492Z,39.70
2022-12-13T00:14:23.819Z,39.20
2022-12-13T00:16:52.376Z,38.23
2022-12-13T00:19:22.040Z,38.83
2022-12-13T00:21:50.479Z,39.93
2022-12-13T00:24:18.944Z,39.27
2022-12-13T00:26:47.198Z,39.67
2022-12-13T00:29:15.522Z,38.33
2022-12-13T00:31:58.570Z,39.27
2022-12-13T00:34:29.531Z,37.87
2022-12-13T00:36:59.790Z,38.40
2022-12-13T00:39:28.293Z,38.83
2022-12-13T00:41:56.646Z,37.53
2022-12-13T00:44:25.271Z,39.43
2022-12-13T00:46:53.518Z,38.53
2022-12-13T00:49:22.012Z,37.50
2022-12-13T00:51:51.665Z,40.70
2022-12-13T00:54:19.898Z,38.77
2022-12-13T00:56:48.251Z,39.57
2022-12-13T00:59:16.837Z,39.03
2022-12-13T01:01:46.023Z,37.47
2022-12-13T01:04:15.227Z,36.83
2022-12-13T01:06:45.869Z,37.93
2022-12-13T01:09:20.766Z,35.63
2022-12-13T01:11:50.161Z,36.07
2022-12-13T01:14:19.256Z,37.03
2022-12-13T01:16:47.633Z,37.63
2022-12-13T01:19:16.366Z,36.97
2022-12-13T01:21:44.599Z,37.83
2022-12-13T01:24:12.988Z,40.03
2022-12-13T01:26:42.774Z,36.87
2022-12-13T01:29:11.567Z,40.13
2022-12-13T01:31:41.628Z,37.73
2022-12-13T01:34:11.417Z,38.20
2022-12-13T01:36:41.099Z,38.50
2022-12-13T01:39:14.775Z,35.70
2022-12-13T01:41:48.160Z,39.17
2022-12-13T01:45:04.778Z,39.20
2022-12-13T01:47:40.859Z,37.20
2022-12-13T01:50:13.937Z,38.47
2022-12-13T01:52:44.178Z,38.17
2022-12-13T01:55:13.695Z,39.73
2022-12-13T01:57:46.107Z,38.37
2022-12-13T02:00:16.429Z,34.70
2022-12-13T02:02:45.587Z,38.37
2022-12-13T02:05:23.141Z,38.63
2022-12-13T02:07:52.435Z,36.77
2022-12-13T02:10:21.246Z,36.23
2022-12-13T02:12:51.594Z,37.67
2022-12-13T02:15:22.031Z,38.40
2022-12-13T02:18:07.959Z,38.57
2022-12-13T02:20:58.923Z,37.87
2022-12-13T02:24:13.323Z,39.00
2022-12-13T02:27:09.867Z,37.10
2022-12-13T02:30:26.893Z,37.33
2022-12-13T02:33:21.358Z,38.57
2022-12-13T02:36:00.691Z,40.00
2022-12-13T02:38:35.289Z,37.67
2022-12-13T02:41:14.877Z,37.07
2022-12-13T02:43:51.704Z,37.43
2022-12-13T02:46:34.082Z,38.60
2022-12-13T02:49:04.839Z,39.90
2022-12-13T02:51:34.372Z,39.07
2022-12-13T02:54:02.731Z,38.30
2022-12-13T02:56:32.951Z,37.47
2022-12-13T02:59:05.046Z,40.53
2022-12-13T03:01:50.704Z,37.83
2022-12-13T03:04:33.978Z,39.17
2022-12-13T03:07:11.745Z,37.30
2022-12-13T03:09:50.626Z,39.83
2022-12-13T03:12:49.281Z,39.13
2022-12-13T03:15:23.117Z,37.00
2022-12-13T03:17:59.858Z,39.73
2022-12-13T03:20:30.836Z,38.83
2022-12-13T03:22:59.458Z,39.53
2022-12-13T03:25:32.967Z,36.70
2022-12-13T03:28:02.904Z,37.43
2022-12-13T03:30:32.354Z,37.77
2022-12-13T03:33:03.819Z,38.60
2022-12-13T03:35:44.845Z,37.37
2022-12-13T03:38:22.576Z,39.33
2022-12-13T03:40:54.216Z,36.53
2022-12-13T03:43:23.345Z,39.17
2022-12-13T03:45:52.616Z,37.60
2022-12-13T03:48:23.015Z,37.77
2022-12-13T03:50:55.225Z,37.47
2022-12-13T03:53:33.187Z,40.37
2022-12-13T03:56:03.690Z,38.20
2022-12-13T03:58:36.077Z,38.93
2022-12-13T04:01:07.996Z,38.77
2022-12-13T04:03:36.607Z,38.70
2022-12-13T04:06:07.463Z,38.87
2022-12-13T04:08:36.880Z,38.90
2022-12-13T04:11:26.800Z,38.30
2022-12-13T04:13:57.116Z,38.80
2022-12-13T04:16:25.942Z,37.20
2022-12-13T04:18:54.220Z,39.73
2022-12-13T04:21:24.760Z,37.03
2022-12-13T04:23:53.024Z,38.27
2022-12-13T04:26:21.436Z,36.17
2022-12-13T04:28:54.516Z,38.37
2022-12-13T04:31:23.854Z,37.70
2022-12-13T04:33:52.307Z,37.30
2022-12-13T04:36:31.838Z,37.03
2022-12-13T04:39:03.157Z,36.53
2022-12-13T04:41:36.828Z,39.20
2022-12-13T04:44:06.847Z,39.30
2022-12-13T04:46:55.088Z,37.60
2022-12-13T04:49:29.766Z,37.50
2022-12-13T04:52:01.163Z,40.10
2022-12-13T04:54:35.698Z,38.90
2022-12-13T04:57:07.659Z,37.97
2022-12-13T04:59:36.111Z,37.30
2022-12-13T05:02:05.922Z,36.63
2022-12-13T05:04:34.531Z,37.77
2022-12-13T05:07:02.988Z,37.93
2022-12-13T05:09:32.795Z,38.13
2022-12-13T05:12:02.051Z,39.60
2022-12-13T05:14:31.147Z,40.50
2022-12-13T05:16:59.885Z,38.27
2022-12-13T05:19:30.454Z,39.03
2022-12-13T05:22:00.995Z,42.00
2022-12-13T05:24:32.435Z,41.73
2022-12-13T05:27:01.201Z,42.80
2022-12-13T05:29:29.851Z,40.77
2022-12-13T05:31:58.346Z,42.70
2022-12-13T05:34:26.853Z,41.57
2022-12-13T05:36:55.147Z,41.23
2022-12-13T05:39:27.972Z,39.57
2022-12-13T05:42:01.787Z,41.60
2022-12-13T05:44:32.233Z,42.27
2022-12-13T05:47:01.953Z,42.60
2022-12-13T05:49:30.953Z,38.30
2022-12-13T05:51:59.355Z,41.90
2022-12-13T05:54:27.739Z,41.73
2022-12-13T05:56:56.681Z,39.47
2022-12-13T05:59:26.408Z,40.77
2022-12-13T06:01:54.852Z,40.50
2022-12-13T06:04:23.604Z,39.47
2022-12-13T06:06:52.633Z,41.90
2022-12-13T06:09:21.369Z,40.13
2022-12-13T06:11:50.310Z,40.17
2022-12-13T06:14:21.559Z,40.67
2022-12-13T06:16:53.189Z,41.37
2022-12-13T06:19:21.989Z,40.33
2022-12-13T06:21:50.349Z,43.57
2022-12-13T06:24:21.121Z,40.87
2022-12-13T06:26:51.219Z,42.47
2022-12-13T06:29:23.985Z,42.83
2022-12-13T06:32:01.834Z,42.03
2022-12-13T06:34:33.804Z,42.00
2022-12-13T06:37:02.410Z,43.77
2022-12-13T06:39:33.183Z,40.50
2022-12-13T06:42:03.341Z,39.70
2022-12-13T06:44:31.843Z,42.67
2022-12-13T06:47:10.280Z,43.67
2022-12-13T06:49:43.473Z,43.10
2022-12-13T06:52:13.787Z,44.23
2022-12-13T06:54:42.559Z,42.10
2022-12-13T06:57:11.159Z,46.90
2022-12-13T06:59:39.727Z,44.43
2022-12-13T07:02:15.503Z,42.67
2022-12-13T07:04:56.179Z,43.80
2022-12-13T07:07:25.958Z,42.97
2022-12-13T07:09:54.722Z,43.70
2022-12-13T07:12:23.446Z,43.47
2022-12-13T07:14:52.232Z,44.20
2022-12-13T07:17:32.660Z,41.83
2022-12-13T07:20:07.971Z,44.33
2022-12-13T07:22:44.928Z,44.63
2022-12-13T07:25:27.947Z,42.87
2022-12-13T07:28:01.401Z,45.20
2022-12-13T07:30:32.585Z,48.03
2022-12-13T07:33:03.104Z,43.30
2022-12-13T07:35:32.441Z,43.37
2022-12-13T07:38:06.070Z,43.77
2022-12-13T07:40:35.222Z,42.37
2022-12-13T07:43:03.581Z,42.40
2022-12-13T07:45:31.841Z,43.90
2022-12-13T07:48:05.362Z,44.17
2022-12-13T07:50:37.030Z,41.13
2022-12-13T07:53:07.648Z,43.00
2022-12-13T07:55:37.468Z,43.53
2022-12-13T07:58:07.424Z,42.63
2022-12-13T08:00:35.763Z,43.03
2022-12-13T08:03:06.653Z,40.70
2022-12-13T08:05:38.612Z,43.43
2022-12-13T08:08:10.457Z,43.03
2022-12-13T08:10:39.609Z,46.63
2022-12-13T08:13:08.038Z,45.53
2022-12-13T08:15:36.330Z,45.67
2022-12-13T08:18:06.507Z,42.90
2022-12-13T08:20:34.774Z,50.87
2022-12-13T08:23:03.188Z,47.80
2022-12-13T08:25:32.097Z,47.33
2022-12-13T08:28:02.054Z,47.83
2022-12-13T08:30:32.515Z,47.63
2022-12-13T08:33:04.722Z,46.97
2022-12-13T08:35:35.377Z,45.70
2022-12-13T08:38:04.419Z,46.20
2022-12-13T08:40:32.812Z,47.60
2022-12-13T08:43:01.053Z,44.90
2022-12-13T08:45:29.500Z,46.77
2022-12-13T08:48:00.648Z,48.43
2022-12-13T08:50:30.551Z,46.93
2022-12-13T08:53:00.281Z,49.27
2022-12-13T08:55:31.319Z,44.47
2022-12-13T08:58:06.997Z,44.90
2022-12-13T09:00:35.414Z,45.13
2022-12-13T09:03:05.021Z,46.10
2022-12-13T09:05:35.211Z,46.80
2022-12-13T09:08:25.049Z,47.17
2022-12-13T09:11:11.217Z,43.87
2022-12-13T09:13:50.551Z,50.17
2022-12-13T09:16:24.520Z,45.47
2022-12-13T09:18:55.216Z,46.53
2022-12-13T09:21:31.566Z,46.70
2022-12-13T09:24:02.450Z,47.57
2022-12-13T09:26:38.262Z,46.77
2022-12-13T09:29:11.076Z,48.77
2022-12-13T09:31:41.129Z,49.23
2022-12-13T09:34:10.146Z,47.30
2022-12-13T09:36:38.709Z,49.07
2022-12-13T09:39:08.434Z,46.17
2022-12-13T09:41:41.366Z,48.50
2022-12-13T09:44:32.731Z,46.33
2022-12-13T09:47:13.327Z,47.37
2022-12-13T09:49:51.674Z,46.40
2022-12-13T09:52:24.263Z,46.47
2022-12-13T09:54:57.189Z,44.77
2022-12-13T09:57:31.267Z,45.63
2022-12-13T10:00:02.465Z,43.27
2022-12-13T10:02:33.700Z,44.77
2022-12-13T10:05:22.281Z,45.57
2022-12-13T10:07:54.346Z,47.47
2022-12-13T10:10:24.351Z,43.30
2022-12-13T10:13:01.961Z,44.23
2022-12-13T10:15:32.969Z,45.43
2022-12-13T10:18:04.247Z,44.80
2022-12-13T10:20:34.505Z,41.63
2022-12-13T10:23:31.464Z,43.90
2022-12-13T10:26:02.897Z,42.90
2022-12-13T10:28:34.723Z,44.07
2022-12-13T10:31:03.840Z,45.20
2022-12-13T10:33:35.073Z,42.43
2022-12-13T10:36:16.481Z,43.03
2022-12-13T10:38:47.352Z,44.23
2022-12-13T10:41:36.710Z,43.80
2022-12-13T10:44:25.939Z,44.03
2022-12-13T10:47:05.797Z,46.57
2022-12-13T10:49:42.447Z,48.17
2022-12-13T10:52:30.640Z,47.10
2022-12-13T10:55:04.596Z,47.27
2022-12-13T10:57:54.580Z,46.23
2022-12-13T11:00:37.747Z,44.07
2022-12-13T11:03:07.221Z,44.23
2022-12-13T11:05:37.646Z,44.00
2022-12-13T11:08:19.333Z,44.63
2022-12-13T11:10:57.708Z,46.93
2022-12-13T11:13:36.899Z,46.30
2022-12-13T11:16:13.041Z,45.33
2022-12-13T11:18:41.588Z,45.30
2022-12-13T11:21:11.229Z,44.30
2022-12-13T11:23:44.949Z,44.37
2022-12-13T11:26:24.262Z,46.77
2022-12-13T11:29:16.188Z,46.57
2022-12-13T11:31:55.436Z,45.50
2022-12-13T11:34:35.256Z,44.63
2022-12-13T11:37:19.222Z,44.90
2022-12-13T11:39:51.781Z,44.83
2022-12-13T11:42:27.263Z,42.23
2022-12-13T11:45:07.976Z,45.53
2022-12-13T11:47:44.944Z,45.10
2022-12-13T11:50:32.678Z,44.10
2022-12-13T11:53:24.371Z,43.73
2022-12-13T11:55:58.793Z,42.93
2022-12-13T12:01:32.406Z,41.60
2022-12-13T12:04:18.178Z,42.33
2022-12-13T12:06:53.143Z,42.80
2022-12-13T12:09:25.421Z,40.70
2022-12-13T12:12:02.198Z,42.53
2022-12-13T12:14:42.196Z,42.03
2022-12-13T12:17:15.773Z,39.60
2022-12-13T12:19:47.923Z,39.80
2022-12-13T12:22:32.271Z,40.70
2022-12-13T12:25:22.753Z,40.60
2022-12-13T12:28:00.414Z,41.63
2022-12-13T12:30:41.419Z,40.80
2022-12-13T12:33:25.093Z,40.17
2022-12-13T12:36:15.437Z,39.50
2022-12-13T12:39:13.297Z,39.37
2022-12-13T12:42:00.263Z,39.67
2022-12-13T12:44:40.864Z,40.23
2022-12-13T12:47:56.476Z,39.20
2022-12-13T12:50:43.051Z,39.33
2022-12-13T12:53:31.709Z,39.17
2022-12-13T12:56:18.285Z,36.80
2022-12-13T12:58:53.271Z,35.97
2022-12-13T13:01:43.341Z,37.30
2022-12-13T13:04:22.627Z,37.10
2022-12-13T13:07:01.921Z,37.97
2022-12-13T13:09:32.489Z,35.47
2022-12-13T13:12:29.680Z,33.43
2022-12-13T13:14:53.594Z,31.93
2022-12-13T13:17:47.745Z,32.77
2022-12-13T13:20:26.941Z,28.30
2022-12-13T13:23:38.871Z,24.87
2022-12-13T13:26:16.416Z,26.53
2022-12-13T13:28:43.568Z,24.93
2022-12-13T13:31:12.834Z,24.93
2022-12-13T13:33:48.118Z,24.77
2022-12-13T13:36:47.940Z,25.00
2022-12-13T13:39:38.811Z,25.40
2022-12-13T13:42:18.548Z,25.07
2022-12-13T13:45:23.654Z,25.20
2022-12-13T13:48:20.833Z,25.97
2022-12-13T13:51:31.425Z,25.37
2022-12-13T13:54:37.221Z,25.07
2022-12-13T14:01:12.402Z,24.20
2022-12-13T14:04:38.115Z,25.63
2022-12-13T14:07:52.364Z,25.70
2022-12-13T14:10:36.591Z,26.77
2022-12-13T14:13:59.127Z,27.57
2022-12-13T14:17:19.122Z,27.73
2022-12-13T14:20:32.406Z,27.40
2022-12-13T14:23:08.134Z,28.93
2022-12-13T14:26:18.348Z,28.00
2022-12-13T14:28:51.060Z,29.37
2022-12-13T14:31:23.651Z,28.70
2022-12-13T14:33:54.755Z,29.57
2022-12-13T14:36:32.267Z,28.73
2022-12-13T14:39:02.981Z,28.13
2022-12-13T14:41:32.698Z,30.17
2022-12-13T14:44:16.189Z,30.00
2022-12-13T14:46:57.218Z,29.77
2022-12-13T14:49:28.554Z,30.47
2022-12-13T14:52:01.640Z,29.63
2022-12-13T14:54:39.756Z,31.00
2022-12-13T14:57:19.180Z,29.70
2022-12-13T14:59:50.394Z,32.33
2022-12-13T15:02:30.881Z,30.30
2022-12-13T15:05:02.044Z,31.67
2022-12-13T15:07:36.274Z,30.87
2022-12-13T15:10:19.133Z,30.43
2022-12-13T15:12:49.859Z,33.47
2022-12-13T15:15:26.348Z,31.70
2022-12-13T15:18:15.108Z,33.63
2022-12-13T15:20:43.509Z,31.93
2022-12-13T15:23:20.597Z,37.00
2022-12-13T15:25:56.944Z,36.50
2022-12-13T15:28:29.447Z,36.80
2022-12-13T15:31:00.343Z,38.13
2022-12-13T15:33:35.258Z,40.60
2022-12-13T15:36:11.335Z,40.80
2022-12-13T15:38:43.190Z,38.67
2022-12-13T15:41:19.301Z,40.37
2022-12-13T15:43:52.553Z,39.60
2022-12-13T15:46:27.131Z,37.97
2022-12-13T15:48:57.694Z,39.57
2022-12-13T15:51:29.243Z,39.70
2022-12-13T15:54:21.194Z,39.90
2022-12-13T15:57:13.634Z,41.67
2022-12-13T15:59:46.054Z,39.40
2022-12-13T16:02:20.133Z,43.60
2022-12-13T16:04:49.042Z,39.97
2022-12-13T16:07:26.219Z,40.67
2022-12-13T16:09:55.750Z,41.63
2022-12-13T16:12:29.770Z,43.40
2022-12-13T16:15:20.559Z,41.97
2022-12-13T16:18:07.888Z,41.60
2022-12-13T16:20:36.642Z,44.70
2022-12-13T16:23:08.869Z,41.93
2022-12-13T16:25:37.900Z,43.17
2022-12-13T16:28:06.583Z,42.93
2022-12-13T16:31:04.095Z,44.97
2022-12-13T16:33:32.897Z,42.43
2022-12-13T16:36:01.351Z,43.83
2022-12-13T16:38:30.105Z,43.13
2022-12-13T16:41:09.304Z,44.70
2022-12-13T16:43:45.737Z,41.73
2022-12-13T16:47:15.220Z,45.13
2022-12-13T16:49:18.824Z,45.57
2022-12-13T16:51:48.834Z,42.43
2022-12-13T16:54:19.998Z,44.13
2022-12-13T16:56:48.937Z,44.43
2022-12-13T16:59:20.744Z,42.87
2022-12-13T17:01:51.505Z,46.37
2022-12-13T17:04:22.923Z,46.57
2022-12-13T17:06:54.488Z,45.93
2022-12-13T17:09:25.342Z,44.63
2022-12-13T17:11:53.739Z,45.23
2022-12-13T17:14:23.301Z,44.90
2022-12-13T17:16:53.239Z,45.80
2022-12-13T17:19:22.312Z,45.10
2022-12-13T17:21:50.633Z,45.13
2022-12-13T17:24:18.974Z,46.77
2022-12-13T17:26:54.549Z,45.23
2022-12-13T17:29:24.697Z,48.43
2022-12-13T17:31:54.587Z,50.77
2022-12-13T17:34:22.885Z,50.27
2022-12-13T17:36:51.206Z,51.77
2022-12-13T17:39:19.992Z,50.07
2022-12-13T17:41:54.875Z,54.37
2022-12-13T17:44:25.161Z,51.67
2022-12-13T17:46:55.819Z,50.83
2022-12-13T17:49:25.553Z,52.53
2022-12-13T17:51:54.795Z,51.77
2022-12-13T17:54:24.706Z,52.87
2022-12-13T17:56:53.612Z,54.90
2022-12-13T17:59:22.359Z,51.03
2022-12-13T18:01:50.926Z,55.10
2022-12-13T18:04:21.337Z,52.30
2022-12-13T18:06:51.524Z,51.17
2022-12-13T18:09:20.280Z,52.30
2022-12-13T18:11:48.672Z,55.90
2022-12-13T18:14:17.388Z,54.67
2022-12-13T18:16:45.815Z,53.93
2022-12-13T18:19:15.336Z,52.90
2022-12-13T18:21:45.039Z,54.60
2022-12-13T18:24:13.632Z,57.13
2022-12-13T18:26:42.563Z,56.30
2022-12-13T18:29:11.000Z,57.00
2022-12-13T18:31:39.802Z,57.63
2022-12-13T18:34:09.329Z,55.07
2022-12-13T18:36:39.666Z,57.77
2022-12-13T18:39:09.467Z,57.43
2022-12-13T18:41:37.936Z,57.33
2022-12-13T18:44:09.088Z,55.53
2022-12-13T18:46:44.724Z,58.17
2022-12-13T18:49:14.466Z,54.43
2022-12-13T18:51:42.790Z,54.37
2022-12-13T18:54:12.477Z,52.73
2022-12-13T18:56:41.055Z,52.73
2022-12-13T18:59:11.001Z,55.77
2022-12-13T19:01:39.413Z,54.00
2022-12-13T19:04:07.733Z,55.60
2022-12-13T19:06:36.037Z,51.23
2022-12-13T19:09:04.546Z,53.77
2022-12-13T19:11:34.334Z,53.50
2022-12-13T19:14:02.601Z,55.07
2022-12-13T19:16:31.087Z,54.83
2022-12-13T19:18:59.693Z,52.53
2022-12-13T19:21:28.510Z,52.30
2022-12-13T19:23:58.815Z,52.50
2022-12-13T19:26:29.311Z,55.40
2022-12-13T19:29:00.181Z,51.40
2022-12-13T19:31:32.074Z,52.80
2022-12-13T19:34:01.868Z,51.10
2022-12-13T19:36:31.049Z,54.47
2022-12-13T19:38:59.800Z,51.20
2022-12-13T19:41:28.376Z,51.40
2022-12-13T19:43:58.185Z,52.17
2022-12-13T19:46:27.223Z,52.50
2022-12-13T19:48:55.569Z,51.93
2022-12-13T19:51:24.059Z,51.23
2022-12-13T19:53:52.773Z,54.07
2022-12-13T19:56:23.240Z,51.53
2022-12-13T19:58:52.307Z,54.57
2022-12-13T20:01:22.349Z,57.27
2022-12-13T20:03:51.456Z,53.90
2022-12-13T20:06:22.526Z,58.27
2022-12-13T20:08:51.723Z,59.90
2022-12-13T20:11:23.015Z,59.20
2022-12-13T20:13:54.743Z,55.03
2022-12-13T20:16:26.860Z,53.53
2022-12-13T20:18:56.796Z,54.03
2022-12-13T20:21:25.862Z,54.43
2022-12-13T20:23:54.417Z,54.13
2022-12-13T20:26:25.613Z,51.70
2022-12-13T20:28:54.461Z,52.03
2022-12-13T20:31:27.241Z,49.37
2022-12-13T20:33:57.038Z,52.33
2022-12-13T20:36:28.678Z,51.13
2022-12-13T20:38:59.706Z,51.53
2022-12-13T20:41:31.000Z,50.03
2022-12-13T20:44:01.673Z,49.47
2022-12-13T20:46:32.043Z,50.53
2022-12-13T20:49:03.216Z,49.23
2022-12-13T20:51:33.891Z,50.33
2022-12-13T20:54:02.481Z,50.23
2022-12-13T20:56:35.046Z,51.07
2022-12-13T20:59:04.381Z,51.00
2022-12-13T21:01:37.838Z,52.13
2022-12-13T21:04:08.840Z,49.53
2022-12-13T21:06:40.675Z,51.00
2022-12-13T21:09:10.908Z,47.93
2022-12-13T21:11:41.576Z,48.13
2022-12-13T21:14:20.860Z,50.50
2022-12-13T21:16:54.342Z,44.93
2022-12-13T21:19:25.666Z,46.93
2022-12-13T21:21:55.225Z,50.83
2022-12-13T21:24:26.799Z,54.13
2022-12-13T21:26:56.405Z,49.23
2022-12-13T21:29:25.344Z,50.70
2022-12-13T21:31:55.417Z,51.03
2022-12-13T21:34:24.477Z,50.43
2022-12-13T21:36:54.621Z,53.77
2022-12-13T21:39:28.108Z,53.87
2022-12-13T21:41:56.879Z,52.07
2022-12-13T21:44:25.381Z,51.73
2022-12-13T21:47:12.265Z,52.33
2022-12-13T21:49:41.086Z,50.10
2022-12-13T21:52:09.422Z,66.15
2022-12-13T21:54:37.986Z,54.20
2022-12-13T21:57:23.579Z,50.37
2022-12-13T21:59:51.896Z,53.57
2022-12-13T22:02:21.621Z,52.73
2022-12-13T22:04:52.429Z,53.03
2022-12-13T22:07:23.897Z,52.23
2022-12-13T22:09:52.542Z,50.27
2022-12-13T22:12:23.998Z,55.63
2022-12-13T22:14:56.391Z,52.37
2022-12-13T22:17:35.118Z,50.17
2022-12-13T22:20:05.917Z,47.43
2022-12-13T22:22:34.504Z,47.17
2022-12-13T22:25:02.800Z,48.70
2022-12-13T22:27:31.106Z,50.80
2022-12-13T22:29:59.661Z,48.97
2022-12-13T22:32:32.357Z,46.47
2022-12-13T22:35:00.996Z,47.97
2022-12-13T22:37:30.212Z,47.83
2022-12-13T22:39:58.624Z,48.00
2022-12-13T22:42:27.332Z,48.33
2022-12-13T22:44:56.303Z,51.20
2022-12-13T22:47:24.658Z,46.67
2022-12-13T22:49:54.295Z,48.20
2022-12-13T22:52:22.862Z,49.93
2022-12-13T22:54:51.146Z,48.60
2022-12-13T22:57:19.397Z,50.40
2022-12-13T22:59:47.648Z,47.83
2022-12-13T23:02:16.796Z,48.30
2022-12-13T23:04:45.179Z,48.97
2022-12-13T23:07:15.745Z,48.03
2022-12-13T23:09:44.238Z,47.20
2022-12-13T23:12:31.013Z,48.27
2022-12-13T23:14:59.238Z,48.90
2022-12-13T23:17:27.574Z,50.23
2022-12-13T23:19:55.864Z,47.93
2022-12-13T23:22:27.326Z,48.37
2022-12-13T23:24:55.629Z,47.57
2022-12-13T23:27:25.627Z,48.33
2022-12-13T23:29:53.871Z,44.40
2022-12-13T23:32:22.212Z,49.07
2022-12-13T23:34:50.537Z,48.23
2022-12-13T23:37:18.800Z,48.77
2022-12-13T23:39:48.501Z,48.50
2022-12-13T23:42:16.827Z,45.93
2022-12-13T23:44:45.059Z,47.87
2022-12-13T23:47:13.468Z,47.63
2022-12-13T23:49:42.586Z,48.30
2022-12-13T23:52:10.788Z,46.43
2022-12-13T23:54:39.015Z,47.20
2022-12-13T23:57:08.654Z,48.87
2022-12-13T23:59:36.953Z,48.70
